LJLJ/LJU METAR and TAF weather

Enter ICAO airport designator
Station Type Date Time Source
LJLJ METAR 2020/11/25 23:00 UTC NOAA

LJLJ 252300Z VRB01KT 0300 R30/0450N FZFG VV001 M02/M02 Q1025 NOSIG


Station Type Date Time Source
LJLJ Decoded METAR 2020/11/25 23:00 UTC NOAA

Ljubljana / Brnik, Slovenia (LJLJ) 46-13N 014-29E 362M
Nov 25, 2020 - 06:00 PM EST / 2020.11.25 2300 UTC
Wind: Variable at 1 MPH (1 KT):0
Visibility: less than 1 mile:0
Sky conditions: obscured
Weather: freezing fog
Temperature: 28 F (-2 C)
Dew Point: 28 F (-2 C)
Relative Humidity: 100%
Pressure (altimeter): 30.27 in. Hg (1025 hPa)
ob: LJLJ 252300Z VRB01KT 0300 R30/0450N FZFG VV001 M02/M02 Q1025 NOSIG
cycle: 23

Station Type Date Time Source
LJLJ TAF 2020/11/25 18:03 UTC NOAA

TAF TAF LJLJ 251700Z 2518/2618 VRB02KT CAVOK
BECMG 2600/2603 0300 FZFG VV001
TEMPO 2611/2616 1500 BR OVC005

Example: see airport list